WEATHER DATA

TODAY
Time Temp. Dewp. Hum. Bar.
00:03 6.7 3.3 79 1007.9
00:13 6.6 3.2 79 1007.9
00:22 6.5 3.1 79 1007.8
00:33 6.3 2.9 79 1007.9
00:43 6 2.8 80 1008.1
00:53 5.8 2.6 80 1008
01:03 5.7 2.7 81 1007.9
01:13 5.6 2.6 81 1007.8
01:23 5.5 2.5 81 1007.9
01:33 5.4 2.6 82 1007.8
01:44 5.4 2.6 82 1007.8
01:53 5.3 2.5 82 1007.8
02:03 5.2 2.4 82 1007.7
02:14 5.1 2.3 82 1007.5
02:24 5.1 2.3 82 1007.5
02:34 5 2.2 82 1007.3
02:43 4.9 2.1 82 1007.3
02:54 4.8 2 82 1007.3
03:04 4.8 2 82 1007.1
03:14 4.8 2 82 1007
03:24 4.7 1.9 82 1006.9
03:34 4.5 1.7 82 1006.9
03:44 4.4 1.8 83 1006.8
03:54 4.4 1.8 83 1006.7
04:05 4.4 1.8 83 1006.7
04:14 4.4 1.8 83 1006.5
04:24 4.3 1.7 83 1006.4
04:35 4.3 1.7 83 1006.4
04:45 4.1 1.5 83 1006.5
04:55 4 1.4 83 1006.4
05:04 4 1.4 83 1006.5
05:15 4 1.4 83 1006.5
05:25 3.9 1.3 83 1006.4
05:35 4 1.4 83 1006.6
05:45 3.9 1.3 83 1006.5
05:55 3.9 1.3 83 1006.4
06:05 3.8 1.2 83 1006.4
06:15 3.7 1.1 83 1006.5
06:26 3.9 1.4 84 1006.6
06:36 4 1.5 84 1006.5
06:45 3.9 1.4 84 1006.5
06:56 3.9 1.4 84 1006.5
07:06 4 1.5 84 1006.5
07:16 4 1.4 83 1006.5
07:26 3.9 1.3 83 1006.5
07:36 4 1.5 84 1006.7
07:46 4.1 1.6 84 1006.7
07:56 4.2 1.7 84 1006.8
08:06 4.3 1.8 84 1006.7
08:17 4.4 1.8 83 1006.7
08:26 4.4 1.8 83 1006.8
08:36 4.5 1.9 83 1006.6
08:47 4.6 2 83 1006.6
08:57 4.7 2.1 83 1006.4
09:07 4.8 2.2 83 1006.3
09:17 4.9 2.3 83 1006.3
09:27 5.1 2.5 83 1006.3
09:37 5.3 2.7 83 1006.2
09:47 5.7 3 83 1006.1
09:57 6 3.3 83 1006.2
10:07 6.4 3.4 81 1006.2
10:17 6.8 3.6 80 1006.2
10:27 7.2 3.8 79 1006.1
10:38 7.4 3.8 78 1006.1
10:47 7.6 3.8 77 1006
10:57 7.7 3.9 77 1005.9
11:08 7.9 4.1 77 1005.8
11:18 8.1 4.1 76 1005.7
11:28 8.3 4.3 76 1005.6
11:37 8.4 4.2 75 1005.5
11:48 8.4 4 74 1005.3
11:58 8.6 4 73 1005.2
12:18 8.7 3.5 70 1005
12:28 8.7 3.7 71 1005.1
12:38 8.8 4 72 1005.1

DAY STATISTIC

2018-11-19
TEMPERATURE
AVERAGE
5.4
HIGH
8.8
12:38
LOW
3.7
06:15
PRESSURE
AVERAGE
1006.7
HIGH
1008.1
00:43
LOW
1005.0
12:18
DEWPOINT
AVERAGE
2.4
HIGH
4.3
11:28
LOW
1.1
06:15
HUMIDITY
AVERAGE
81
HIGH
84
06:26
LOW
70
12:18
TEMPERATURE (°C)
LOW
3.7
HIGH
8.8
AVERAGE
5.4
PRESSURE (hpa)
LOW
1005.0
HIGH
1008.1
AVERAGE
1006.7
DEVICE